createdAt,value
2023-03-18T00:01:39.098Z,15.02
2023-03-18T00:04:07.713Z,12.80
2023-03-18T00:06:38.282Z,8.82
2023-03-18T00:09:07.121Z,15.27
2023-03-18T00:11:36.433Z,17.30
2023-03-18T00:14:06.881Z,10.50
2023-03-18T00:16:39.155Z,13.05
2023-03-18T00:19:07.511Z,8.33
2023-03-18T00:21:36.114Z,12.10
2023-03-18T00:24:05.302Z,9.45
2023-03-18T00:26:33.774Z,10.40
2023-03-18T00:29:02.483Z,10.55
2023-03-18T00:31:31.559Z,13.35
2023-03-18T00:34:01.268Z,15.32
2023-03-18T00:36:30.579Z,13.05
2023-03-18T00:38:59.726Z,9.85
2023-03-18T00:41:28.845Z,9.77
2023-03-18T00:43:59.432Z,13.85
2023-03-18T00:46:30.769Z,10.07
2023-03-18T00:49:05.365Z,9.73
2023-03-18T00:51:36.793Z,13.05
2023-03-18T00:54:08.674Z,11.45
2023-03-18T00:57:36.651Z,12.93
2023-03-18T01:05:41.544Z,15.88
2023-03-18T01:08:10.960Z,12.10
2023-03-18T01:10:39.152Z,7.25
2023-03-18T01:13:08.074Z,13.52
2023-03-18T01:15:36.263Z,18.25
2023-03-18T01:18:04.970Z,13.35
2023-03-18T01:20:33.509Z,15.02
2023-03-18T01:23:01.962Z,15.10
2023-03-18T01:25:31.576Z,10.73
2023-03-18T01:27:59.829Z,9.55
2023-03-18T01:30:29.011Z,12.90
2023-03-18T01:32:57.468Z,10.88
2023-03-18T01:35:27.179Z,14.27
2023-03-18T01:37:55.520Z,16.60
2023-03-18T01:40:23.867Z,12.07
2023-03-18T01:42:59.152Z,16.55
2023-03-18T01:45:29.347Z,12.55
2023-03-18T01:47:58.391Z,8.57
2023-03-18T01:50:29.324Z,8.27
2023-03-18T01:52:59.569Z,7.93
2023-03-18T01:55:31.629Z,10.68
2023-03-18T01:58:03.361Z,14.57
2023-03-18T02:00:31.628Z,10.98
2023-03-18T02:03:00.433Z,9.25
2023-03-18T02:05:29.950Z,9.77
2023-03-18T02:07:58.067Z,11.52
2023-03-18T02:10:27.868Z,14.50
2023-03-18T02:13:00.507Z,8.68
2023-03-18T02:15:33.165Z,13.02
2023-03-18T02:18:05.382Z,11.15
2023-03-18T02:20:43.872Z,13.30
2023-03-18T02:23:27.879Z,9.75
2023-03-18T02:26:02.810Z,5.80
2023-03-18T02:28:33.329Z,9.00
2023-03-18T02:31:04.586Z,9.82
2023-03-18T02:33:36.435Z,8.27
2023-03-18T02:36:07.211Z,9.90
2023-03-18T02:38:35.447Z,9.98
2023-03-18T02:41:03.661Z,9.85
2023-03-18T02:43:34.310Z,10.43
2023-03-18T02:46:34.611Z,10.55
2023-03-18T02:49:04.635Z,9.45
2023-03-18T02:51:32.781Z,11.30
2023-03-18T02:54:04.695Z,10.32
2023-03-18T02:56:32.928Z,10.50
2023-03-18T02:59:02.364Z,12.27
2023-03-18T03:01:30.714Z,14.35
2023-03-18T03:03:58.785Z,11.20
2023-03-18T03:06:26.857Z,11.10
2023-03-18T03:08:55.149Z,7.82
2023-03-18T03:11:23.702Z,10.85
2023-03-18T03:13:51.844Z,8.43
2023-03-18T03:16:21.606Z,9.80
2023-03-18T03:18:49.665Z,9.30
2023-03-18T03:21:18.086Z,16.85
2023-03-18T03:23:46.716Z,8.68
2023-03-18T03:26:15.258Z,10.43
2023-03-18T03:28:44.164Z,8.38
2023-03-18T03:31:12.428Z,13.73
2023-03-18T03:33:43.729Z,10.20
2023-03-18T03:36:13.040Z,9.55
2023-03-18T03:38:42.379Z,12.65
2023-03-18T03:41:11.606Z,9.63
2023-03-18T03:43:40.354Z,11.45
2023-03-18T03:46:09.561Z,14.00
2023-03-18T03:48:38.159Z,11.80
2023-03-18T03:51:08.566Z,10.32
2023-03-18T03:53:37.163Z,7.97
2023-03-18T03:56:07.557Z,6.40
2023-03-18T03:58:35.981Z,8.65
2023-03-18T04:01:05.102Z,8.57
2023-03-18T04:03:33.920Z,6.53
2023-03-18T04:06:02.009Z,10.38
2023-03-18T04:08:31.717Z,16.80
2023-03-18T04:10:59.928Z,14.73
2023-03-18T04:13:27.932Z,12.98
2023-03-18T04:15:55.955Z,8.02
2023-03-18T04:18:23.978Z,19.50
2023-03-18T04:20:52.016Z,9.57
2023-03-18T04:23:20.801Z,11.05
2023-03-18T04:25:50.536Z,9.60
2023-03-18T04:28:18.510Z,13.55
2023-03-18T04:30:46.528Z,7.53
2023-03-18T04:33:14.616Z,21.85
2023-03-18T04:35:43.628Z,12.43
2023-03-18T04:38:11.938Z,9.27
2023-03-18T04:40:40.025Z,6.90
2023-03-18T04:43:10.555Z,10.82
2023-03-18T04:45:38.713Z,7.20
2023-03-18T04:48:07.319Z,10.40
2023-03-18T04:50:35.412Z,12.93
2023-03-18T04:53:03.473Z,10.55
2023-03-18T04:55:31.848Z,12.35
2023-03-18T04:58:00.572Z,9.52
2023-03-18T05:00:29.992Z,15.75
2023-03-18T05:02:58.176Z,9.50
2023-03-18T05:05:26.368Z,15.77
2023-03-18T05:07:54.389Z,13.88
2023-03-18T05:10:22.549Z,11.98
2023-03-18T05:12:50.727Z,12.13
2023-03-18T05:15:19.487Z,15.45
2023-03-18T05:17:48.840Z,12.68
2023-03-18T05:20:16.871Z,13.27
2023-03-18T05:22:44.887Z,14.63
2023-03-18T05:25:13.002Z,14.77
2023-03-18T05:27:41.828Z,8.02
2023-03-18T05:30:12.467Z,11.70
2023-03-18T05:32:41.492Z,10.00
2023-03-18T05:35:12.097Z,15.20
2023-03-18T05:37:40.728Z,11.57
2023-03-18T05:40:11.635Z,8.38
2023-03-18T05:42:54.912Z,9.52
2023-03-18T05:45:24.374Z,13.43
2023-03-18T05:47:52.869Z,14.02
2023-03-18T05:50:30.902Z,9.73
2023-03-18T05:52:59.087Z,13.00
2023-03-18T05:55:28.408Z,12.02
2023-03-18T05:57:56.738Z,10.65
2023-03-18T06:00:25.762Z,9.80
2023-03-18T06:02:54.074Z,9.25
2023-03-18T06:05:22.929Z,8.82
2023-03-18T06:07:54.017Z,9.48
2023-03-18T06:10:22.613Z,11.52
2023-03-18T06:12:50.926Z,10.10
2023-03-18T06:15:21.355Z,9.73
2023-03-18T06:17:50.005Z,10.43
2023-03-18T06:20:18.707Z,14.05
2023-03-18T06:22:49.577Z,13.10
2023-03-18T06:25:20.999Z,10.20
2023-03-18T06:27:49.059Z,15.30
2023-03-18T06:30:17.989Z,8.63
2023-03-18T06:32:46.396Z,11.15
2023-03-18T06:35:15.524Z,10.20
2023-03-18T06:37:43.768Z,9.63
2023-03-18T06:40:13.334Z,10.68
2023-03-18T06:42:42.970Z,11.48
2023-03-18T06:45:12.011Z,7.80
2023-03-18T06:47:41.058Z,8.05
2023-03-18T06:50:09.785Z,10.00
2023-03-18T06:52:38.455Z,10.00
2023-03-18T06:55:07.590Z,10.85
2023-03-18T06:57:35.674Z,11.70
2023-03-18T07:00:06.074Z,9.65
2023-03-18T07:02:34.121Z,9.10
2023-03-18T07:05:02.120Z,6.82
2023-03-18T07:07:30.150Z,11.50
2023-03-18T07:09:58.159Z,8.20
2023-03-18T07:12:26.654Z,10.90
2023-03-18T07:14:54.673Z,9.20
2023-03-18T07:17:24.410Z,8.57
2023-03-18T07:19:52.739Z,6.80
2023-03-18T07:22:21.240Z,7.20
2023-03-18T07:24:49.416Z,7.55
2023-03-18T07:27:18.036Z,8.68
2023-03-18T07:29:46.465Z,8.00
2023-03-18T07:32:14.732Z,10.63
2023-03-18T07:34:44.099Z,9.50
2023-03-18T07:37:12.291Z,5.00
2023-03-18T07:39:40.307Z,15.95
2023-03-18T07:42:09.461Z,8.40
2023-03-18T07:44:37.832Z,10.20
2023-03-18T07:47:06.176Z,12.00
2023-03-18T07:49:34.285Z,12.27
2023-03-18T07:52:04.057Z,8.88
2023-03-18T07:54:32.036Z,11.13
2023-03-18T07:57:00.153Z,8.27
2023-03-18T07:59:28.185Z,7.95
2023-03-18T08:01:56.765Z,6.22
2023-03-18T08:04:25.107Z,8.95
2023-03-18T08:06:53.393Z,8.32
2023-03-18T08:09:23.125Z,4.25
2023-03-18T08:11:51.293Z,9.13
2023-03-18T08:14:19.319Z,9.80
2023-03-18T08:16:47.818Z,7.60
2023-03-18T08:19:15.813Z,8.20
2023-03-18T08:21:44.121Z,6.63
2023-03-18T08:24:12.670Z,6.35
2023-03-18T08:26:43.149Z,8.07
2023-03-18T08:29:11.212Z,5.55
2023-03-18T08:31:39.244Z,5.30
2023-03-18T08:34:07.347Z,7.72
2023-03-18T08:36:36.100Z,8.40
2023-03-18T08:39:05.310Z,5.50
2023-03-18T08:41:34.574Z,6.95
2023-03-18T08:44:06.610Z,7.22
2023-03-18T08:46:34.626Z,8.25
2023-03-18T08:49:02.693Z,6.30
2023-03-18T08:51:30.878Z,6.70
2023-03-18T08:53:59.178Z,6.00
2023-03-18T08:56:27.228Z,13.85
2023-03-18T08:58:55.357Z,7.63
2023-03-18T09:01:24.784Z,5.65
2023-03-18T09:03:53.005Z,11.48
2023-03-18T09:06:21.396Z,6.32
2023-03-18T09:08:49.434Z,8.10
2023-03-18T09:11:18.545Z,9.45
2023-03-18T09:13:46.585Z,10.57
2023-03-18T09:16:14.653Z,7.30
2023-03-18T09:18:45.924Z,5.55
2023-03-18T09:21:15.104Z,5.03
2023-03-18T09:23:43.181Z,5.32
2023-03-18T09:26:11.365Z,5.95
2023-03-18T09:28:39.377Z,5.65
2023-03-18T09:31:07.405Z,5.28
2023-03-18T09:33:37.020Z,5.00
2023-03-18T09:36:07.075Z,3.63
2023-03-18T09:38:35.313Z,5.90
2023-03-18T09:41:08.025Z,4.45
2023-03-18T09:43:48.230Z,5.13
2023-03-18T09:46:23.245Z,3.35
2023-03-18T09:49:12.430Z,4.03
2023-03-18T09:51:49.551Z,3.00
2023-03-18T09:54:20.215Z,4.18
2023-03-18T09:56:48.704Z,5.25
2023-03-18T09:59:21.521Z,4.60
2023-03-18T10:01:54.158Z,3.50
2023-03-18T10:04:24.824Z,4.72
2023-03-18T10:07:00.145Z,3.70
2023-03-18T10:09:29.876Z,4.13
2023-03-18T10:12:02.592Z,5.88
2023-03-18T10:14:37.298Z,2.08
2023-03-18T10:17:14.109Z,3.85
2023-03-18T10:19:44.717Z,2.92
2023-03-18T10:22:40.572Z,3.78
2023-03-18T10:25:18.531Z,3.25
2023-03-18T10:27:57.473Z,5.13
2023-03-18T10:30:36.961Z,5.53
2023-03-18T10:33:09.028Z,2.97
2023-03-18T10:35:39.939Z,5.00
2023-03-18T10:38:19.526Z,2.63
2023-03-18T10:40:49.394Z,4.93
2023-03-18T10:43:19.551Z,6.90
2023-03-18T10:45:49.891Z,4.22
2023-03-18T10:48:22.191Z,4.75
2023-03-18T10:50:54.608Z,4.10
2023-03-18T10:53:28.818Z,3.75
2023-03-18T10:56:01.387Z,4.22
2023-03-18T10:58:30.295Z,4.15
2023-03-18T11:00:59.064Z,4.35
2023-03-18T11:03:29.351Z,1.92
2023-03-18T11:05:59.214Z,2.15
2023-03-18T11:08:36.942Z,4.82
2023-03-18T11:11:22.482Z,4.68
2023-03-18T11:13:55.889Z,2.50
2023-03-18T11:16:38.245Z,4.35
2023-03-18T11:19:24.427Z,1.80
2023-03-18T11:22:02.033Z,3.25
2023-03-18T11:24:39.263Z,5.13
2023-03-18T11:27:29.797Z,4.32
2023-03-18T11:30:00.971Z,2.08
2023-03-18T11:32:31.087Z,3.17
2023-03-18T11:35:00.844Z,4.68
2023-03-18T11:37:32.759Z,3.78
2023-03-18T11:40:18.561Z,3.38
2023-03-18T11:42:48.615Z,3.17
2023-03-18T11:45:54.062Z,3.60
2023-03-18T11:48:36.504Z,3.40
2023-03-18T11:51:29.780Z,6.77
2023-03-18T11:54:10.009Z,7.05
2023-03-18T11:56:43.878Z,2.05
2023-03-18T11:59:28.930Z,3.13
2023-03-18T12:02:06.123Z,2.28
2023-03-18T12:04:41.454Z,3.72
2023-03-18T12:07:23.676Z,3.15
2023-03-18T12:09:56.889Z,3.65
2023-03-18T12:12:47.578Z,5.53
2023-03-18T12:15:23.390Z,2.70
2023-03-18T12:17:59.600Z,2.42
2023-03-18T12:20:45.891Z,3.40
2023-03-18T12:23:26.976Z,3.40
2023-03-18T12:26:00.222Z,2.75
2023-03-18T12:28:38.532Z,3.35
2023-03-18T12:31:28.554Z,4.88
2023-03-18T12:33:58.346Z,6.63
2023-03-18T12:36:36.755Z,4.40
2023-03-18T12:39:22.816Z,3.60
2023-03-18T12:42:01.240Z,3.92
2023-03-18T12:44:43.836Z,4.18
2023-03-18T12:47:15.310Z,1.95
2023-03-18T12:49:46.556Z,4.80
2023-03-18T12:52:20.810Z,4.05
2023-03-18T12:54:52.063Z,2.70
2023-03-18T12:57:25.478Z,5.72
2023-03-18T12:59:59.101Z,3.47
2023-03-18T13:02:41.322Z,4.55
2023-03-18T13:05:26.664Z,3.28
2023-03-18T13:08:31.428Z,4.25
2023-03-18T13:11:05.951Z,4.20
2023-03-18T13:13:36.809Z,3.42
2023-03-18T13:16:06.777Z,2.13
2023-03-18T13:18:38.373Z,2.80
2023-03-18T13:21:07.402Z,3.40
2023-03-18T13:23:59.031Z,5.20
2023-03-18T13:26:34.899Z,7.40
2023-03-18T13:29:14.192Z,4.75
2023-03-18T13:31:53.380Z,5.22
2023-03-18T13:35:00.090Z,4.00
2023-03-18T13:37:49.061Z,2.63
2023-03-18T13:40:27.431Z,7.18
2023-03-18T13:42:58.096Z,3.22
2023-03-18T13:45:30.052Z,4.25
2023-03-18T13:48:01.558Z,3.85
2023-03-18T13:50:35.499Z,5.32
2023-03-18T13:53:04.186Z,4.28
2023-03-18T13:55:34.998Z,3.15
2023-03-18T13:58:19.947Z,3.17
2023-03-18T14:01:33.461Z,3.13
2023-03-18T14:04:30.256Z,3.75
2023-03-18T14:07:12.568Z,4.80
2023-03-18T14:10:18.734Z,1.80
2023-03-18T14:12:48.710Z,2.70
2023-03-18T14:15:39.223Z,3.17
2023-03-18T14:18:27.674Z,4.18
2023-03-18T14:21:02.640Z,2.28
2023-03-18T14:23:39.400Z,2.08
2023-03-18T14:26:09.676Z,2.65
2023-03-18T14:28:45.595Z,2.55
2023-03-18T14:31:22.753Z,1.75
2023-03-18T14:34:00.035Z,2.65
2023-03-18T14:37:04.439Z,1.77
2023-03-18T14:39:34.995Z,2.08
2023-03-18T14:42:04.565Z,7.70
2023-03-18T14:44:37.252Z,3.08
2023-03-18T14:47:07.738Z,6.15
2023-03-18T14:49:38.373Z,1.80
2023-03-18T14:52:24.434Z,2.42
2023-03-18T14:54:55.043Z,3.55
2023-03-18T14:57:23.796Z,3.60
2023-03-18T14:59:51.857Z,2.28
2023-03-18T15:02:25.542Z,3.45
2023-03-18T15:04:55.472Z,1.70
2023-03-18T15:07:34.234Z,2.90
2023-03-18T15:10:10.898Z,1.67
2023-03-18T15:12:39.616Z,4.57
2023-03-18T15:15:12.070Z,4.28
2023-03-18T15:17:42.326Z,1.67
2023-03-18T15:20:14.380Z,3.05
2023-03-18T15:22:44.607Z,5.32
2023-03-18T15:25:18.994Z,4.18
2023-03-18T15:27:47.109Z,3.28
2023-03-18T15:30:26.561Z,4.07
2023-03-18T15:33:03.721Z,5.18
2023-03-18T15:35:32.892Z,6.00
2023-03-18T15:38:16.754Z,3.83
2023-03-18T15:40:50.082Z,5.75
2023-03-18T15:43:30.270Z,1.60
2023-03-18T15:46:00.354Z,2.58
2023-03-18T15:48:32.039Z,4.60
2023-03-18T15:51:01.927Z,3.97
2023-03-18T15:53:36.622Z,4.65
2023-03-18T15:56:14.730Z,4.32
2023-03-18T15:58:44.804Z,3.28
2023-03-18T16:01:17.010Z,5.63
2023-03-18T16:03:46.569Z,2.95
2023-03-18T16:06:16.298Z,10.27
2023-03-18T16:08:46.462Z,5.43
2023-03-18T16:11:15.568Z,4.10
2023-03-18T16:13:44.675Z,7.25
2023-03-18T16:16:18.607Z,3.97
2023-03-18T16:18:46.862Z,4.25
2023-03-18T16:21:15.978Z,5.13
2023-03-18T16:23:46.457Z,9.18
2023-03-18T16:26:17.550Z,5.78
2023-03-18T16:28:48.307Z,4.15
2023-03-18T16:31:17.769Z,7.18
2023-03-18T16:33:47.331Z,6.68
2023-03-18T16:36:26.835Z,7.60
2023-03-18T16:38:56.232Z,4.95
2023-03-18T16:41:24.394Z,4.03
2023-03-18T16:43:52.723Z,5.95
2023-03-18T16:46:20.850Z,4.32
2023-03-18T16:48:50.440Z,3.80
2023-03-18T16:51:19.040Z,4.40
2023-03-18T16:53:47.084Z,4.22
2023-03-18T16:56:18.973Z,3.60
2023-03-18T16:58:47.101Z,6.80
2023-03-18T17:01:16.809Z,3.22
2023-03-18T17:03:45.655Z,2.83
2023-03-18T17:06:14.937Z,2.55
2023-03-18T17:08:43.028Z,6.05
2023-03-18T17:11:13.076Z,8.10
2023-03-18T17:13:43.580Z,10.95
2023-03-18T17:16:17.518Z,13.00
2023-03-18T17:18:46.533Z,6.78
2023-03-18T17:21:15.455Z,4.90
2023-03-18T17:23:43.662Z,13.40
2023-03-18T17:26:14.517Z,4.82
2023-03-18T17:28:45.539Z,10.95
2023-03-18T17:31:14.532Z,6.95
2023-03-18T17:33:42.848Z,19.27
2023-03-18T17:36:10.983Z,7.95
2023-03-18T17:38:39.044Z,8.23
2023-03-18T17:41:14.798Z,8.95
2023-03-18T17:43:44.205Z,7.20
2023-03-18T17:46:12.316Z,7.38
2023-03-18T17:48:41.027Z,4.35
2023-03-18T17:51:13.449Z,7.30
2023-03-18T17:53:43.311Z,5.90
2023-03-18T17:56:13.994Z,10.88
2023-03-18T17:58:45.652Z,10.40
2023-03-18T18:01:15.456Z,3.78
2023-03-18T18:03:43.826Z,5.78
2023-03-18T18:06:17.315Z,10.38
2023-03-18T18:08:45.330Z,8.85
2023-03-18T18:11:18.820Z,8.05
2023-03-18T18:13:48.617Z,5.88
2023-03-18T18:16:16.819Z,13.27
2023-03-18T18:18:44.842Z,6.25
2023-03-18T18:21:15.614Z,4.78
2023-03-18T18:23:44.903Z,5.88
2023-03-18T18:26:15.630Z,9.50
2023-03-18T18:28:45.315Z,11.55
2023-03-18T18:31:15.485Z,21.02
2023-03-18T18:33:44.965Z,17.38
2023-03-18T18:36:14.063Z,10.38
2023-03-18T18:38:42.189Z,12.63
2023-03-18T18:41:10.764Z,11.77
2023-03-18T18:43:38.784Z,11.63
2023-03-18T18:46:11.816Z,11.77
2023-03-18T18:51:16.403Z,13.00
2023-03-18T18:53:44.496Z,8.20
2023-03-18T18:56:15.700Z,10.82
2023-03-18T18:58:43.734Z,9.27
2023-03-18T19:01:13.085Z,6.30
2023-03-18T19:03:42.846Z,15.02
2023-03-18T19:06:21.977Z,19.98
2023-03-18T19:08:50.003Z,12.20
2023-03-18T19:11:18.213Z,8.65
2023-03-18T19:13:46.295Z,5.82
2023-03-18T19:16:30.383Z,6.30
2023-03-18T19:19:00.184Z,11.75
2023-03-18T19:21:28.653Z,9.57
2023-03-18T19:23:58.215Z,5.18
2023-03-18T19:26:27.088Z,10.68
2023-03-18T19:28:59.259Z,6.50
2023-03-18T19:31:30.529Z,8.40
2023-03-18T19:34:00.783Z,10.65
2023-03-18T19:36:30.531Z,11.30
2023-03-18T19:39:00.359Z,8.77
2023-03-18T19:41:29.427Z,12.88
2023-03-18T19:44:01.827Z,11.90
2023-03-18T19:46:36.216Z,14.30
2023-03-18T19:49:12.121Z,9.25
2023-03-18T19:51:40.119Z,10.77
2023-03-18T19:54:20.328Z,9.60
2023-03-18T19:56:49.142Z,6.18
2023-03-18T19:59:21.636Z,7.65
2023-03-18T20:01:49.708Z,8.85
2023-03-18T20:04:20.702Z,7.82
2023-03-18T20:06:50.075Z,20.92
2023-03-18T20:09:18.747Z,13.13
2023-03-18T20:11:47.266Z,7.05
2023-03-18T20:14:27.303Z,8.77
2023-03-18T20:16:55.627Z,9.68
2023-03-18T20:19:25.007Z,13.65
2023-03-18T20:21:53.785Z,10.23
2023-03-18T20:24:29.431Z,6.93
2023-03-18T20:26:57.630Z,10.32
2023-03-18T20:29:25.823Z,15.00
2023-03-18T20:31:54.375Z,12.07
2023-03-18T20:34:24.023Z,10.60
2023-03-18T20:36:52.060Z,12.27
2023-03-18T20:39:21.792Z,7.30
2023-03-18T20:41:50.520Z,7.05
2023-03-18T20:44:18.586Z,7.80
2023-03-18T20:46:46.680Z,8.15
2023-03-18T20:49:14.919Z,9.50
2023-03-18T20:51:44.344Z,5.55
2023-03-18T20:54:17.652Z,9.10
2023-03-18T20:56:46.144Z,5.95
2023-03-18T20:59:14.806Z,8.75
2023-03-18T21:01:43.455Z,8.48
2023-03-18T21:04:13.446Z,11.10
2023-03-18T21:06:42.037Z,9.35
2023-03-18T21:09:13.245Z,9.98
2023-03-18T21:11:41.368Z,12.55
2023-03-18T21:14:15.217Z,8.90
2023-03-18T21:16:43.290Z,9.65
2023-03-18T21:19:12.623Z,8.57
2023-03-18T21:21:41.163Z,10.50
2023-03-18T21:24:24.770Z,5.97
2023-03-18T21:27:04.151Z,11.00
2023-03-18T21:29:33.369Z,12.38
2023-03-18T21:32:02.599Z,6.82
2023-03-18T21:34:30.721Z,7.75
2023-03-18T21:36:58.754Z,9.05
2023-03-18T21:39:28.250Z,9.70
2023-03-18T21:41:56.279Z,7.35
2023-03-18T21:44:24.316Z,11.15
2023-03-18T21:46:52.511Z,9.75
2023-03-18T21:49:20.990Z,11.77
2023-03-18T21:51:49.021Z,17.92
2023-03-18T21:54:19.354Z,11.05
2023-03-18T21:56:48.739Z,12.18
2023-03-18T21:59:16.746Z,9.30
2023-03-18T22:01:44.855Z,9.68
2023-03-18T22:04:12.980Z,12.18
2023-03-18T22:06:43.653Z,13.65
2023-03-18T22:09:11.739Z,12.23
2023-03-18T22:11:39.918Z,13.88
2023-03-18T22:14:12.217Z,14.05
2023-03-18T22:16:40.271Z,14.32
2023-03-18T22:19:08.298Z,8.80
2023-03-18T22:21:36.342Z,18.65
2023-03-18T22:24:04.538Z,10.27
2023-03-18T22:26:32.553Z,18.92
2023-03-18T22:29:00.580Z,9.80
2023-03-18T22:31:30.376Z,9.27
2023-03-18T22:33:58.547Z,11.75
2023-03-18T22:36:28.823Z,14.80
2023-03-18T22:38:56.920Z,15.07
2023-03-18T22:41:29.246Z,8.52
2023-03-18T22:43:57.956Z,13.63
2023-03-18T22:46:28.173Z,11.57
2023-03-18T22:48:58.453Z,10.85
2023-03-18T22:51:29.704Z,9.00
2023-03-18T22:53:58.024Z,12.05
2023-03-18T22:56:26.210Z,12.98
2023-03-18T22:58:54.270Z,9.80
2023-03-18T23:01:32.661Z,14.07
2023-03-18T23:04:02.171Z,11.50
2023-03-18T23:06:30.205Z,12.55
2023-03-18T23:08:58.516Z,8.60
2023-03-18T23:11:27.276Z,11.00
2023-03-18T23:13:55.664Z,12.60
2023-03-18T23:16:25.975Z,13.77
2023-03-18T23:18:54.537Z,12.10
2023-03-18T23:21:25.378Z,11.65
2023-03-18T23:23:53.657Z,8.95
2023-03-18T23:26:21.834Z,12.77
2023-03-18T23:28:49.945Z,10.80
2023-03-18T23:31:18.209Z,11.13
2023-03-18T23:33:47.314Z,10.80
2023-03-18T23:36:15.794Z,10.18
2023-03-18T23:38:45.316Z,17.02
2023-03-18T23:41:13.306Z,10.07
2023-03-18T23:43:41.337Z,11.88
2023-03-18T23:46:09.551Z,13.55
2023-03-18T23:48:37.580Z,17.17
2023-03-18T23:51:05.785Z,13.23
2023-03-18T23:53:33.846Z,10.77
2023-03-18T23:56:03.232Z,12.40
2023-03-18T23:58:31.285Z,11.45
